sensor_id;sensor_type;location;lat;lon;timestamp;P1;durP1;ratioP1;P2;durP2;ratioP2
20093;SDS011;10206;48.012;10.030;2023-08-06T00:00:20;4.03;;;3.60;;
20093;SDS011;10206;48.012;10.030;2023-08-06T00:02:46;5.70;;;3.40;;
20093;SDS011;10206;48.012;10.030;2023-08-06T00:05:13;4.67;;;3.37;;
20093;SDS011;10206;48.012;10.030;2023-08-06T00:07:43;6.20;;;3.50;;
20093;SDS011;10206;48.012;10.030;2023-08-06T00:10:10;6.03;;;3.90;;
20093;SDS011;10206;48.012;10.030;2023-08-06T00:12:36;5.33;;;4.27;;
20093;SDS011;10206;48.012;10.030;2023-08-06T00:15:02;4.97;;;3.77;;
20093;SDS011;10206;48.012;10.030;2023-08-06T00:17:28;5.43;;;3.77;;
20093;SDS011;10206;48.012;10.030;2023-08-06T00:19:54;4.70;;;4.20;;
20093;SDS011;10206;48.012;10.030;2023-08-06T00:22:21;5.43;;;4.57;;
20093;SDS011;10206;48.012;10.030;2023-08-06T00:24:47;6.77;;;4.10;;
20093;SDS011;10206;48.012;10.030;2023-08-06T00:27:13;4.93;;;4.53;;
20093;SDS011;10206;48.012;10.030;2023-08-06T00:29:39;4.73;;;4.20;;
20093;SDS011;10206;48.012;10.030;2023-08-06T00:32:05;6.63;;;4.50;;
20093;SDS011;10206;48.012;10.030;2023-08-06T00:34:31;5.37;;;4.33;;
20093;SDS011;10206;48.012;10.030;2023-08-06T00:36:57;4.70;;;4.20;;
20093;SDS011;10206;48.012;10.030;2023-08-06T00:39:23;5.30;;;4.80;;
20093;SDS011;10206;48.012;10.030;2023-08-06T00:41:49;5.57;;;4.97;;
20093;SDS011;10206;48.012;10.030;2023-08-06T00:44:15;7.37;;;4.90;;
20093;SDS011;10206;48.012;10.030;2023-08-06T00:46:41;6.20;;;5.10;;
20093;SDS011;10206;48.012;10.030;2023-08-06T00:49:08;7.20;;;5.10;;
20093;SDS011;10206;48.012;10.030;2023-08-06T00:51:34;6.87;;;5.33;;
20093;SDS011;10206;48.012;10.030;2023-08-06T00:54:01;6.60;;;5.17;;
20093;SDS011;10206;48.012;10.030;2023-08-06T00:56:27;8.60;;;5.50;;
20093;SDS011;10206;48.012;10.030;2023-08-06T00:58:53;6.23;;;5.20;;
20093;SDS011;10206;48.012;10.030;2023-08-06T01:01:19;7.30;;;5.57;;
20093;SDS011;10206;48.012;10.030;2023-08-06T01:03:46;7.07;;;6.03;;
20093;SDS011;10206;48.012;10.030;2023-08-06T01:06:12;5.80;;;5.20;;
20093;SDS011;10206;48.012;10.030;2023-08-06T01:08:54;6.43;;;4.55;;
20093;SDS011;10206;48.012;10.030;2023-08-06T01:11:32;5.50;;;4.77;;
20093;SDS011;10206;48.012;10.030;2023-08-06T01:14:23;6.37;;;5.10;;
20093;SDS011;10206;48.012;10.030;2023-08-06T01:16:52;5.70;;;4.93;;
20093;SDS011;10206;48.012;10.030;2023-08-06T01:19:20;5.27;;;4.77;;
20093;SDS011;10206;48.012;10.030;2023-08-06T01:21:46;5.60;;;4.70;;
20093;SDS011;10206;48.012;10.030;2023-08-06T01:24:13;6.87;;;5.10;;
20093;SDS011;10206;48.012;10.030;2023-08-06T01:26:44;7.13;;;4.83;;
20093;SDS011;10206;48.012;10.030;2023-08-06T01:29:42;5.03;;;4.17;;
20093;SDS011;10206;48.012;10.030;2023-08-06T01:32:11;6.03;;;4.97;;
20093;SDS011;10206;48.012;10.030;2023-08-06T01:34:39;6.77;;;5.07;;
20093;SDS011;10206;48.012;10.030;2023-08-06T01:37:08;7.07;;;4.87;;
20093;SDS011;10206;48.012;10.030;2023-08-06T01:39:35;5.60;;;5.00;;
20093;SDS011;10206;48.012;10.030;2023-08-06T01:42:01;7.93;;;5.60;;
20093;SDS011;10206;48.012;10.030;2023-08-06T01:44:28;6.30;;;5.70;;
20093;SDS011;10206;48.012;10.030;2023-08-06T01:46:54;5.30;;;4.80;;
20093;SDS011;10206;48.012;10.030;2023-08-06T01:49:20;6.00;;;5.10;;
20093;SDS011;10206;48.012;10.030;2023-08-06T01:51:46;5.77;;;5.23;;
20093;SDS011;10206;48.012;10.030;2023-08-06T01:54:12;5.93;;;5.23;;
20093;SDS011;10206;48.012;10.030;2023-08-06T01:56:38;5.77;;;4.93;;
20093;SDS011;10206;48.012;10.030;2023-08-06T01:59:04;5.13;;;4.63;;
20093;SDS011;10206;48.012;10.030;2023-08-06T02:01:30;5.90;;;4.80;;
20093;SDS011;10206;48.012;10.030;2023-08-06T02:03:56;4.83;;;4.33;;
20093;SDS011;10206;48.012;10.030;2023-08-06T02:06:23;5.70;;;5.07;;
20093;SDS011;10206;48.012;10.030;2023-08-06T02:08:49;6.87;;;4.77;;
20093;SDS011;10206;48.012;10.030;2023-08-06T02:11:16;6.00;;;4.50;;
20093;SDS011;10206;48.012;10.030;2023-08-06T02:13:43;5.37;;;4.50;;
20093;SDS011;10206;48.012;10.030;2023-08-06T02:16:10;6.30;;;5.13;;
20093;SDS011;10206;48.012;10.030;2023-08-06T02:18:36;5.43;;;4.93;;
20093;SDS011;10206;48.012;10.030;2023-08-06T02:21:02;5.97;;;4.40;;
20093;SDS011;10206;48.012;10.030;2023-08-06T02:23:29;7.23;;;4.93;;
20093;SDS011;10206;48.012;10.030;2023-08-06T02:25:58;7.23;;;5.10;;
20093;SDS011;10206;48.012;10.030;2023-08-06T02:28:26;6.50;;;4.87;;
20093;SDS011;10206;48.012;10.030;2023-08-06T02:30:52;5.27;;;4.40;;
20093;SDS011;10206;48.012;10.030;2023-08-06T02:33:19;5.43;;;4.73;;
20093;SDS011;10206;48.012;10.030;2023-08-06T02:35:45;6.67;;;5.03;;
20093;SDS011;10206;48.012;10.030;2023-08-06T02:38:11;6.07;;;4.40;;
20093;SDS011;10206;48.012;10.030;2023-08-06T02:40:42;5.30;;;4.67;;
20093;SDS011;10206;48.012;10.030;2023-08-06T02:43:09;5.50;;;4.80;;
20093;SDS011;10206;48.012;10.030;2023-08-06T02:45:35;7.17;;;4.53;;
20093;SDS011;10206;48.012;10.030;2023-08-06T02:48:01;6.63;;;4.87;;
20093;SDS011;10206;48.012;10.030;2023-08-06T02:50:28;7.83;;;4.90;;
20093;SDS011;10206;48.012;10.030;2023-08-06T02:52:54;5.10;;;4.60;;
20093;SDS011;10206;48.012;10.030;2023-08-06T02:55:20;8.30;;;4.60;;
20093;SDS011;10206;48.012;10.030;2023-08-06T02:57:46;8.50;;;4.40;;
20093;SDS011;10206;48.012;10.030;2023-08-06T03:00:12;7.03;;;4.60;;
20093;SDS011;10206;48.012;10.030;2023-08-06T03:02:38;7.03;;;4.80;;
20093;SDS011;10206;48.012;10.030;2023-08-06T03:05:04;5.23;;;4.70;;
20093;SDS011;10206;48.012;10.030;2023-08-06T03:07:31;8.67;;;4.83;;
20093;SDS011;10206;48.012;10.030;2023-08-06T03:09:59;6.30;;;4.83;;
20093;SDS011;10206;48.012;10.030;2023-08-06T03:12:28;7.07;;;5.23;;
20093;SDS011;10206;48.012;10.030;2023-08-06T03:14:54;5.20;;;4.70;;
20093;SDS011;10206;48.012;10.030;2023-08-06T03:17:20;5.17;;;4.63;;
20093;SDS011;10206;48.012;10.030;2023-08-06T03:19:46;6.93;;;4.90;;
20093;SDS011;10206;48.012;10.030;2023-08-06T03:22:12;7.23;;;5.13;;
20093;SDS011;10206;48.012;10.030;2023-08-06T03:24:38;6.70;;;4.63;;
20093;SDS011;10206;48.012;10.030;2023-08-06T03:27:04;6.80;;;4.73;;
20093;SDS011;10206;48.012;10.030;2023-08-06T03:29:30;6.90;;;5.03;;
20093;SDS011;10206;48.012;10.030;2023-08-06T03:31:56;8.97;;;5.00;;
20093;SDS011;10206;48.012;10.030;2023-08-06T03:34:22;7.43;;;5.03;;
20093;SDS011;10206;48.012;10.030;2023-08-06T03:36:49;6.27;;;5.03;;
20093;SDS011;10206;48.012;10.030;2023-08-06T03:39:15;8.17;;;5.27;;
20093;SDS011;10206;48.012;10.030;2023-08-06T03:41:41;6.10;;;5.40;;
20093;SDS011;10206;48.012;10.030;2023-08-06T03:44:07;6.70;;;5.03;;
20093;SDS011;10206;48.012;10.030;2023-08-06T03:46:33;5.27;;;4.70;;
20093;SDS011;10206;48.012;10.030;2023-08-06T03:48:59;5.47;;;4.70;;
20093;SDS011;10206;48.012;10.030;2023-08-06T03:51:25;6.70;;;4.93;;
20093;SDS011;10206;48.012;10.030;2023-08-06T03:53:52;5.30;;;4.73;;
20093;SDS011;10206;48.012;10.030;2023-08-06T03:56:18;7.87;;;4.73;;
20093;SDS011;10206;48.012;10.030;2023-08-06T03:58:44;5.27;;;4.77;;
20093;SDS011;10206;48.012;10.030;2023-08-06T04:01:10;6.17;;;5.37;;
20093;SDS011;10206;48.012;10.030;2023-08-06T04:03:36;5.43;;;4.73;;
20093;SDS011;10206;48.012;10.030;2023-08-06T04:06:02;6.50;;;5.00;;
20093;SDS011;10206;48.012;10.030;2023-08-06T04:08:29;7.23;;;4.93;;
20093;SDS011;10206;48.012;10.030;2023-08-06T04:10:55;6.47;;;5.33;;
20093;SDS011;10206;48.012;10.030;2023-08-06T04:13:21;5.00;;;4.50;;
20093;SDS011;10206;48.012;10.030;2023-08-06T04:15:48;5.87;;;4.40;;
20093;SDS011;10206;48.012;10.030;2023-08-06T04:18:14;5.27;;;4.77;;
20093;SDS011;10206;48.012;10.030;2023-08-06T04:20:43;5.97;;;4.47;;
20093;SDS011;10206;48.012;10.030;2023-08-06T04:23:10;6.33;;;4.57;;
20093;SDS011;10206;48.012;10.030;2023-08-06T04:25:37;7.90;;;4.80;;
20093;SDS011;10206;48.012;10.030;2023-08-06T04:28:03;5.30;;;4.40;;
20093;SDS011;10206;48.012;10.030;2023-08-06T04:30:29;5.20;;;4.33;;
20093;SDS011;10206;48.012;10.030;2023-08-06T04:32:58;6.77;;;4.57;;
20093;SDS011;10206;48.012;10.030;2023-08-06T04:35:25;6.67;;;4.57;;
20093;SDS011;10206;48.012;10.030;2023-08-06T04:37:51;5.00;;;4.00;;
20093;SDS011;10206;48.012;10.030;2023-08-06T04:40:17;5.77;;;3.83;;
20093;SDS011;10206;48.012;10.030;2023-08-06T04:42:43;6.10;;;4.03;;
20093;SDS011;10206;48.012;10.030;2023-08-06T04:45:09;5.70;;;3.43;;
20093;SDS011;10206;48.012;10.030;2023-08-06T04:47:35;3.70;;;3.30;;
20093;SDS011;10206;48.012;10.030;2023-08-06T04:50:01;3.87;;;3.20;;
20093;SDS011;10206;48.012;10.030;2023-08-06T04:52:27;3.60;;;3.10;;
20093;SDS011;10206;48.012;10.030;2023-08-06T04:54:54;6.07;;;3.40;;
20093;SDS011;10206;48.012;10.030;2023-08-06T04:57:20;4.47;;;3.00;;
20093;SDS011;10206;48.012;10.030;2023-08-06T04:59:46;4.87;;;2.97;;
20093;SDS011;10206;48.012;10.030;2023-08-06T05:02:13;5.20;;;3.47;;
20093;SDS011;10206;48.012;10.030;2023-08-06T05:04:39;4.30;;;2.90;;
20093;SDS011;10206;48.012;10.030;2023-08-06T05:07:05;3.33;;;3.03;;
20093;SDS011;10206;48.012;10.030;2023-08-06T05:09:32;3.40;;;2.73;;
20093;SDS011;10206;48.012;10.030;2023-08-06T05:12:00;4.50;;;2.90;;
20093;SDS011;10206;48.012;10.030;2023-08-06T05:14:28;3.40;;;3.10;;
20093;SDS011;10206;48.012;10.030;2023-08-06T05:16:54;3.30;;;3.00;;
20093;SDS011;10206;48.012;10.030;2023-08-06T05:19:20;6.63;;;3.43;;
20093;SDS011;10206;48.012;10.030;2023-08-06T05:21:46;6.30;;;4.43;;
20093;SDS011;10206;48.012;10.030;2023-08-06T05:24:13;6.73;;;4.33;;
20093;SDS011;10206;48.012;10.030;2023-08-06T05:26:39;6.87;;;5.13;;
20093;SDS011;10206;48.012;10.030;2023-08-06T05:29:05;6.03;;;2.80;;
20093;SDS011;10206;48.012;10.030;2023-08-06T05:31:31;7.87;;;3.00;;
20093;SDS011;10206;48.012;10.030;2023-08-06T05:33:57;5.23;;;3.00;;
20093;SDS011;10206;48.012;10.030;2023-08-06T05:36:23;15.70;;;14.07;;
20093;SDS011;10206;48.012;10.030;2023-08-06T05:38:49;20.30;;;14.60;;
20093;SDS011;10206;48.012;10.030;2023-08-06T05:41:15;83.17;;;47.63;;
20093;SDS011;10206;48.012;10.030;2023-08-06T05:43:41;27.70;;;17.57;;
20093;SDS011;10206;48.012;10.030;2023-08-06T05:46:07;18.60;;;11.77;;
20093;SDS011;10206;48.012;10.030;2023-08-06T05:48:33;27.47;;;16.83;;
20093;SDS011;10206;48.012;10.030;2023-08-06T05:50:59;22.40;;;14.13;;
20093;SDS011;10206;48.012;10.030;2023-08-06T05:53:25;10.87;;;6.83;;
20093;SDS011;10206;48.012;10.030;2023-08-06T05:55:51;6.90;;;4.00;;
20093;SDS011;10206;48.012;10.030;2023-08-06T05:58:18;4.60;;;3.07;;
20093;SDS011;10206;48.012;10.030;2023-08-06T06:00:45;6.13;;;3.10;;
20093;SDS011;10206;48.012;10.030;2023-08-06T06:03:11;6.00;;;3.90;;
20093;SDS011;10206;48.012;10.030;2023-08-06T06:05:37;5.20;;;3.27;;
20093;SDS011;10206;48.012;10.030;2023-08-06T06:08:06;10.10;;;6.73;;
20093;SDS011;10206;48.012;10.030;2023-08-06T06:10:33;8.90;;;5.60;;
20093;SDS011;10206;48.012;10.030;2023-08-06T06:13:00;5.50;;;3.30;;
20093;SDS011;10206;48.012;10.030;2023-08-06T06:15:26;4.37;;;3.07;;
20093;SDS011;10206;48.012;10.030;2023-08-06T06:17:52;2.53;;;2.33;;
20093;SDS011;10206;48.012;10.030;2023-08-06T06:20:18;2.23;;;2.03;;
20093;SDS011;10206;48.012;10.030;2023-08-06T06:22:44;3.77;;;2.83;;
20093;SDS011;10206;48.012;10.030;2023-08-06T06:25:10;5.30;;;3.73;;
20093;SDS011;10206;48.012;10.030;2023-08-06T06:27:36;3.97;;;2.47;;
20093;SDS011;10206;48.012;10.030;2023-08-06T06:30:03;5.63;;;3.60;;
20093;SDS011;10206;48.012;10.030;2023-08-06T06:32:29;23.73;;;12.77;;
20093;SDS011;10206;48.012;10.030;2023-08-06T06:34:55;4.83;;;2.70;;
20093;SDS011;10206;48.012;10.030;2023-08-06T06:37:21;12.60;;;7.73;;
20093;SDS011;10206;48.012;10.030;2023-08-06T06:39:47;15.93;;;10.50;;
20093;SDS011;10206;48.012;10.030;2023-08-06T06:42:13;6.27;;;4.57;;
20093;SDS011;10206;48.012;10.030;2023-08-06T06:44:40;3.23;;;2.20;;
20093;SDS011;10206;48.012;10.030;2023-08-06T06:47:06;9.23;;;6.27;;
20093;SDS011;10206;48.012;10.030;2023-08-06T06:49:32;4.13;;;2.03;;
20093;SDS011;10206;48.012;10.030;2023-08-06T06:51:58;2.00;;;1.80;;
20093;SDS011;10206;48.012;10.030;2023-08-06T06:54:24;2.03;;;1.80;;
20093;SDS011;10206;48.012;10.030;2023-08-06T06:56:50;2.10;;;1.63;;
20093;SDS011;10206;48.012;10.030;2023-08-06T06:59:16;2.77;;;1.13;;
20093;SDS011;10206;48.012;10.030;2023-08-06T07:01:42;2.67;;;1.10;;
20093;SDS011;10206;48.012;10.030;2023-08-06T07:04:08;3.23;;;1.20;;
20093;SDS011;10206;48.012;10.030;2023-08-06T07:06:34;1.77;;;1.00;;
20093;SDS011;10206;48.012;10.030;2023-08-06T07:09:00;5.80;;;1.53;;
20093;SDS011;10206;48.012;10.030;2023-08-06T07:11:27;2.13;;;1.23;;
20093;SDS011;10206;48.012;10.030;2023-08-06T07:13:56;2.30;;;1.10;;
20093;SDS011;10206;48.012;10.030;2023-08-06T07:16:24;2.17;;;1.20;;
20093;SDS011;10206;48.012;10.030;2023-08-06T07:18:53;1.43;;;0.80;;
20093;SDS011;10206;48.012;10.030;2023-08-06T07:21:20;1.77;;;0.90;;
20093;SDS011;10206;48.012;10.030;2023-08-06T07:23:46;1.70;;;0.80;;
20093;SDS011;10206;48.012;10.030;2023-08-06T07:26:14;2.90;;;0.80;;
20093;SDS011;10206;48.012;10.030;2023-08-06T07:28:41;1.27;;;0.70;;
20093;SDS011;10206;48.012;10.030;2023-08-06T07:31:07;4.78;;;3.20;;
20093;SDS011;10206;48.012;10.030;2023-08-06T07:33:33;5.43;;;1.20;;
20093;SDS011;10206;48.012;10.030;2023-08-06T07:35:59;1.57;;;0.80;;
20093;SDS011;10206;48.012;10.030;2023-08-06T07:38:32;1.90;;;0.97;;
20093;SDS011;10206;48.012;10.030;2023-08-06T07:41:00;5.13;;;0.90;;
20093;SDS011;10206;48.012;10.030;2023-08-06T07:43:27;2.93;;;1.07;;
20093;SDS011;10206;48.012;10.030;2023-08-06T07:45:53;0.90;;;0.70;;
20093;SDS011;10206;48.012;10.030;2023-08-06T07:48:22;0.97;;;0.70;;
20093;SDS011;10206;48.012;10.030;2023-08-06T07:50:51;1.80;;;0.60;;
20093;SDS011;10206;48.012;10.030;2023-08-06T07:53:19;1.57;;;0.70;;
20093;SDS011;10206;48.012;10.030;2023-08-06T07:55:52;0.97;;;0.70;;
20093;SDS011;10206;48.012;10.030;2023-08-06T07:58:19;1.63;;;0.90;;
20093;SDS011;10206;48.012;10.030;2023-08-06T08:00:46;2.27;;;1.27;;
20093;SDS011;10206;48.012;10.030;2023-08-06T08:03:13;1.83;;;0.73;;
20093;SDS011;10206;48.012;10.030;2023-08-06T08:05:44;3.63;;;0.93;;
20093;SDS011;10206;48.012;10.030;2023-08-06T08:08:10;3.20;;;1.03;;
20093;SDS011;10206;48.012;10.030;2023-08-06T08:10:36;3.67;;;1.07;;
20093;SDS011;10206;48.012;10.030;2023-08-06T08:13:03;4.03;;;1.27;;
20093;SDS011;10206;48.012;10.030;2023-08-06T08:15:30;4.83;;;1.30;;
20093;SDS011;10206;48.012;10.030;2023-08-06T08:17:57;4.83;;;1.73;;
20093;SDS011;10206;48.012;10.030;2023-08-06T08:20:24;2.37;;;2.10;;
20093;SDS011;10206;48.012;10.030;2023-08-06T08:22:56;2.90;;;2.00;;
20093;SDS011;10206;48.012;10.030;2023-08-06T08:25:23;4.33;;;1.83;;
20093;SDS011;10206;48.012;10.030;2023-08-06T08:27:49;2.90;;;1.60;;
20093;SDS011;10206;48.012;10.030;2023-08-06T08:30:15;6.10;;;3.63;;
20093;SDS011;10206;48.012;10.030;2023-08-06T08:32:41;4.77;;;3.17;;
20093;SDS011;10206;48.012;10.030;2023-08-06T08:35:07;7.27;;;5.13;;
20093;SDS011;10206;48.012;10.030;2023-08-06T08:37:33;5.80;;;2.93;;
20093;SDS011;10206;48.012;10.030;2023-08-06T08:40:01;2.00;;;1.80;;
20093;SDS011;10206;48.012;10.030;2023-08-06T08:42:28;2.03;;;1.50;;
20093;SDS011;10206;48.012;10.030;2023-08-06T08:44:54;2.67;;;1.23;;
20093;SDS011;10206;48.012;10.030;2023-08-06T08:47:21;3.43;;;1.30;;
20093;SDS011;10206;48.012;10.030;2023-08-06T08:49:49;1.10;;;1.00;;
20093;SDS011;10206;48.012;10.030;2023-08-06T08:52:19;2.20;;;1.03;;
20093;SDS011;10206;48.012;10.030;2023-08-06T08:54:46;1.33;;;1.00;;
20093;SDS011;10206;48.012;10.030;2023-08-06T08:57:16;4.40;;;1.47;;
20093;SDS011;10206;48.012;10.030;2023-08-06T08:59:43;2.40;;;1.10;;
20093;SDS011;10206;48.012;10.030;2023-08-06T09:02:09;1.63;;;0.90;;
20093;SDS011;10206;48.012;10.030;2023-08-06T09:04:38;1.30;;;0.80;;
20093;SDS011;10206;48.012;10.030;2023-08-06T09:07:05;1.23;;;0.83;;
20093;SDS011;10206;48.012;10.030;2023-08-06T09:09:35;1.10;;;0.80;;
20093;SDS011;10206;48.012;10.030;2023-08-06T09:12:05;2.20;;;0.97;;
20093;SDS011;10206;48.012;10.030;2023-08-06T09:14:37;2.40;;;1.20;;
20093;SDS011;10206;48.012;10.030;2023-08-06T09:17:03;2.43;;;0.80;;
20093;SDS011;10206;48.012;10.030;2023-08-06T09:19:31;1.10;;;0.80;;
20093;SDS011;10206;48.012;10.030;2023-08-06T09:21:57;2.07;;;1.00;;
20093;SDS011;10206;48.012;10.030;2023-08-06T09:24:23;3.17;;;1.07;;
20093;SDS011;10206;48.012;10.030;2023-08-06T09:26:51;1.90;;;1.20;;
20093;SDS011;10206;48.012;10.030;2023-08-06T09:29:17;0.97;;;0.70;;
20093;SDS011;10206;48.012;10.030;2023-08-06T09:31:44;0.83;;;0.70;;
20093;SDS011;10206;48.012;10.030;2023-08-06T09:34:14;1.33;;;0.70;;
20093;SDS011;10206;48.012;10.030;2023-08-06T09:36:42;2.10;;;0.80;;
20093;SDS011;10206;48.012;10.030;2023-08-06T09:39:17;0.70;;;0.70;;
20093;SDS011;10206;48.012;10.030;2023-08-06T09:41:45;1.60;;;0.90;;
20093;SDS011;10206;48.012;10.030;2023-08-06T09:44:15;2.80;;;0.70;;
20093;SDS011;10206;48.012;10.030;2023-08-06T09:46:47;0.77;;;0.70;;
20093;SDS011;10206;48.012;10.030;2023-08-06T09:49:27;0.77;;;0.77;;
20093;SDS011;10206;48.012;10.030;2023-08-06T09:52:06;0.90;;;0.80;;
20093;SDS011;10206;48.012;10.030;2023-08-06T09:54:35;1.03;;;0.63;;
20093;SDS011;10206;48.012;10.030;2023-08-06T09:57:03;1.63;;;0.70;;
20093;SDS011;10206;48.012;10.030;2023-08-06T09:59:30;0.70;;;0.70;;
20093;SDS011;10206;48.012;10.030;2023-08-06T10:02:00;2.90;;;0.70;;
20093;SDS011;10206;48.012;10.030;2023-08-06T10:04:27;1.90;;;0.67;;
20093;SDS011;10206;48.012;10.030;2023-08-06T10:06:55;1.07;;;0.90;;
20093;SDS011;10206;48.012;10.030;2023-08-06T10:09:23;0.67;;;0.60;;
20093;SDS011;10206;48.012;10.030;2023-08-06T10:11:50;1.13;;;0.80;;
20093;SDS011;10206;48.012;10.030;2023-08-06T10:14:20;0.93;;;0.70;;
20093;SDS011;10206;48.012;10.030;2023-08-06T10:16:51;0.60;;;0.60;;
20093;SDS011;10206;48.012;10.030;2023-08-06T10:19:19;0.53;;;0.53;;
20093;SDS011;10206;48.012;10.030;2023-08-06T10:25:01;1.67;;;0.67;;
20093;SDS011;10206;48.012;10.030;2023-08-06T10:32:49;0.60;;;0.60;;
20093;SDS011;10206;48.012;10.030;2023-08-06T10:43:26;0.60;;;0.60;;
20093;SDS011;10206;48.012;10.030;2023-08-06T10:45:53;0.60;;;0.60;;
20093;SDS011;10206;48.012;10.030;2023-08-06T10:48:35;0.87;;;0.60;;
20093;SDS011;10206;48.012;10.030;2023-08-06T10:51:02;0.60;;;0.60;;
20093;SDS011;10206;48.012;10.030;2023-08-06T10:53:32;0.50;;;0.50;;
20093;SDS011;10206;48.012;10.030;2023-08-06T10:55:59;1.07;;;0.60;;
20093;SDS011;10206;48.012;10.030;2023-08-06T10:58:37;2.77;;;0.60;;
20093;SDS011;10206;48.012;10.030;2023-08-06T11:01:03;0.60;;;0.60;;
20093;SDS011;10206;48.012;10.030;2023-08-06T11:03:29;0.93;;;0.93;;
20093;SDS011;10206;48.012;10.030;2023-08-06T11:05:56;0.50;;;0.50;;
20093;SDS011;10206;48.012;10.030;2023-08-06T11:08:23;0.50;;;0.50;;
20093;SDS011;10206;48.012;10.030;2023-08-06T11:10:53;0.70;;;0.70;;
20093;SDS011;10206;48.012;10.030;2023-08-06T11:13:20;1.00;;;0.60;;
20093;SDS011;10206;48.012;10.030;2023-08-06T11:15:46;1.33;;;0.50;;
20093;SDS011;10206;48.012;10.030;2023-08-06T11:18:12;0.60;;;0.60;;
20093;SDS011;10206;48.012;10.030;2023-08-06T11:20:38;0.60;;;0.60;;
20093;SDS011;10206;48.012;10.030;2023-08-06T11:23:05;0.60;;;0.40;;
20093;SDS011;10206;48.012;10.030;2023-08-06T11:25:43;0.60;;;0.60;;
20093;SDS011;10206;48.012;10.030;2023-08-06T11:28:11;0.60;;;0.50;;
20093;SDS011;10206;48.012;10.030;2023-08-06T11:30:38;0.50;;;0.50;;
20093;SDS011;10206;48.012;10.030;2023-08-06T11:33:06;0.40;;;0.40;;
20093;SDS011;10206;48.012;10.030;2023-08-06T11:35:35;0.93;;;0.53;;
20093;SDS011;10206;48.012;10.030;2023-08-06T11:38:02;2.63;;;0.70;;
20093;SDS011;10206;48.012;10.030;2023-08-06T11:40:28;1.13;;;0.40;;
20093;SDS011;10206;48.012;10.030;2023-08-06T11:42:55;0.50;;;0.50;;
20093;SDS011;10206;48.012;10.030;2023-08-06T11:45:24;1.03;;;0.63;;
20093;SDS011;10206;48.012;10.030;2023-08-06T11:47:51;1.33;;;0.50;;
20093;SDS011;10206;48.012;10.030;2023-08-06T11:50:21;0.63;;;0.60;;
20093;SDS011;10206;48.012;10.030;2023-08-06T11:52:49;0.60;;;0.60;;
20093;SDS011;10206;48.012;10.030;2023-08-06T11:55:22;1.70;;;0.73;;
20093;SDS011;10206;48.012;10.030;2023-08-06T11:57:49;1.27;;;0.70;;
20093;SDS011;10206;48.012;10.030;2023-08-06T12:00:16;0.70;;;0.70;;
20093;SDS011;10206;48.012;10.030;2023-08-06T12:02:45;1.43;;;1.23;;
20093;SDS011;10206;48.012;10.030;2023-08-06T12:07:39;1.73;;;0.70;;
20093;SDS011;10206;48.012;10.030;2023-08-06T12:10:07;2.33;;;0.80;;
20093;SDS011;10206;48.012;10.030;2023-08-06T12:12:34;0.60;;;0.60;;
20093;SDS011;10206;48.012;10.030;2023-08-06T12:15:02;0.80;;;0.80;;
20093;SDS011;10206;48.012;10.030;2023-08-06T12:17:29;0.63;;;0.60;;
20093;SDS011;10206;48.012;10.030;2023-08-06T12:19:55;1.70;;;0.60;;
20093;SDS011;10206;48.012;10.030;2023-08-06T12:22:21;0.60;;;0.53;;
20093;SDS011;10206;48.012;10.030;2023-08-06T12:24:47;1.03;;;0.70;;
20093;SDS011;10206;48.012;10.030;2023-08-06T12:27:14;1.27;;;0.50;;
20093;SDS011;10206;48.012;10.030;2023-08-06T12:29:44;0.90;;;0.60;;
20093;SDS011;10206;48.012;10.030;2023-08-06T12:32:11;0.60;;;0.60;;
20093;SDS011;10206;48.012;10.030;2023-08-06T12:34:38;0.90;;;0.60;;
20093;SDS011;10206;48.012;10.030;2023-08-06T12:37:05;1.60;;;0.60;;
20093;SDS011;10206;48.012;10.030;2023-08-06T12:39:32;0.50;;;0.50;;
20093;SDS011;10206;48.012;10.030;2023-08-06T12:42:02;0.40;;;0.40;;
20093;SDS011;10206;48.012;10.030;2023-08-06T12:44:29;0.50;;;0.50;;
20093;SDS011;10206;48.012;10.030;2023-08-06T12:46:55;0.87;;;0.50;;
20093;SDS011;10206;48.012;10.030;2023-08-06T12:49:22;1.43;;;0.50;;
20093;SDS011;10206;48.012;10.030;2023-08-06T12:51:50;0.60;;;0.60;;
20093;SDS011;10206;48.012;10.030;2023-08-06T12:54:17;0.47;;;0.47;;
20093;SDS011;10206;48.012;10.030;2023-08-06T12:56:43;0.50;;;0.50;;
20093;SDS011;10206;48.012;10.030;2023-08-06T12:59:10;0.50;;;0.50;;
20093;SDS011;10206;48.012;10.030;2023-08-06T13:01:37;0.57;;;0.57;;
20093;SDS011;10206;48.012;10.030;2023-08-06T13:04:03;0.70;;;0.70;;
20093;SDS011;10206;48.012;10.030;2023-08-06T13:06:29;1.20;;;0.60;;
20093;SDS011;10206;48.012;10.030;2023-08-06T13:08:56;0.60;;;0.60;;
20093;SDS011;10206;48.012;10.030;2023-08-06T13:11:23;0.60;;;0.60;;
20093;SDS011;10206;48.012;10.030;2023-08-06T13:13:49;0.60;;;0.60;;
20093;SDS011;10206;48.012;10.030;2023-08-06T13:16:15;0.60;;;0.60;;
20093;SDS011;10206;48.012;10.030;2023-08-06T13:18:41;0.50;;;0.50;;
20093;SDS011;10206;48.012;10.030;2023-08-06T13:21:07;0.57;;;0.43;;
20093;SDS011;10206;48.012;10.030;2023-08-06T13:23:33;1.13;;;0.60;;
20093;SDS011;10206;48.012;10.030;2023-08-06T13:25:59;0.40;;;0.40;;
20093;SDS011;10206;48.012;10.030;2023-08-06T13:28:25;0.60;;;0.60;;
20093;SDS011;10206;48.012;10.030;2023-08-06T13:30:51;1.60;;;0.60;;
20093;SDS011;10206;48.012;10.030;2023-08-06T13:33:18;1.37;;;0.50;;
20093;SDS011;10206;48.012;10.030;2023-08-06T13:35:44;0.80;;;0.60;;
20093;SDS011;10206;48.012;10.030;2023-08-06T13:38:10;0.80;;;0.60;;
20093;SDS011;10206;48.012;10.030;2023-08-06T13:40:36;0.70;;;0.70;;
20093;SDS011;10206;48.012;10.030;2023-08-06T13:43:02;1.63;;;0.83;;
20093;SDS011;10206;48.012;10.030;2023-08-06T13:45:28;0.63;;;0.63;;
20093;SDS011;10206;48.012;10.030;2023-08-06T13:47:56;0.80;;;0.70;;
20093;SDS011;10206;48.012;10.030;2023-08-06T13:50:22;0.60;;;0.60;;
20093;SDS011;10206;48.012;10.030;2023-08-06T13:52:50;1.27;;;0.63;;
20093;SDS011;10206;48.012;10.030;2023-08-06T13:55:18;0.53;;;0.53;;
20093;SDS011;10206;48.012;10.030;2023-08-06T13:57:44;1.00;;;0.90;;
20093;SDS011;10206;48.012;10.030;2023-08-06T14:00:10;1.93;;;1.03;;
20093;SDS011;10206;48.012;10.030;2023-08-06T14:02:36;0.70;;;0.70;;
20093;SDS011;10206;48.012;10.030;2023-08-06T14:05:03;2.77;;;0.60;;
20093;SDS011;10206;48.012;10.030;2023-08-06T14:07:29;0.73;;;0.60;;
20093;SDS011;10206;48.012;10.030;2023-08-06T14:09:55;0.50;;;0.50;;
20093;SDS011;10206;48.012;10.030;2023-08-06T14:12:22;0.50;;;0.50;;
20093;SDS011;10206;48.012;10.030;2023-08-06T14:14:48;2.40;;;0.83;;
20093;SDS011;10206;48.012;10.030;2023-08-06T14:17:14;0.63;;;0.63;;
20093;SDS011;10206;48.012;10.030;2023-08-06T14:19:41;0.70;;;0.70;;
20093;SDS011;10206;48.012;10.030;2023-08-06T14:22:07;0.60;;;0.60;;
20093;SDS011;10206;48.012;10.030;2023-08-06T14:24:33;1.10;;;1.00;;
20093;SDS011;10206;48.012;10.030;2023-08-06T14:26:59;0.90;;;0.90;;
20093;SDS011;10206;48.012;10.030;2023-08-06T14:29:25;0.70;;;0.70;;
20093;SDS011;10206;48.012;10.030;2023-08-06T14:31:51;2.30;;;1.00;;
20093;SDS011;10206;48.012;10.030;2023-08-06T14:34:17;0.70;;;0.70;;
20093;SDS011;10206;48.012;10.030;2023-08-06T14:36:43;1.90;;;0.80;;
20093;SDS011;10206;48.012;10.030;2023-08-06T14:39:09;0.47;;;0.47;;
20093;SDS011;10206;48.012;10.030;2023-08-06T14:41:35;0.63;;;0.60;;
20093;SDS011;10206;48.012;10.030;2023-08-06T14:44:01;0.63;;;0.60;;
20093;SDS011;10206;48.012;10.030;2023-08-06T14:46:28;1.20;;;0.60;;
20093;SDS011;10206;48.012;10.030;2023-08-06T14:48:54;2.27;;;1.10;;
20093;SDS011;10206;48.012;10.030;2023-08-06T14:51:20;6.90;;;2.17;;